Aeroporto :
LOGIN :

Iscrizione | Disclaimer

   EN    FR    IT 

 










Sommario :    VFR   VFR Marginale   IFR   IFR Intensivo   IFR Molto Intensivo
Visibilità : 
Base nubi : 
>= 8 km
>= 3000ft
5 / 8 km
1000 / 3000 ft
1500m / 5 km
500 / 1000 ft
800 / 1500m
200 / 500 ft
< 800m
< 200 ft
Simboli :   Temporali  Nebbia  Neve Forte  Precipitazioni Forti  Vento > 20 kt
SIGMETs :   Varie  Temporali  Ghiacco  Turbolenza  Onda orograficha  Ceneri Vulcaniche






- Altitudine del aeroporto : 396 ft


LFOZ - Orléans St Denis

ULTIMO METAR :
  • 052130Z AUTO 26007KT 9999 FEW009 SCT027 BKN034 06/05 Q1014

METARs OBSOLETI :
  • 052100Z AUTO 26007KT 9999 FEW010 BKN036 OVC043 06/05 Q1014
  • 052030Z AUTO 26008KT 9999 FEW029 BKN043 BKN050 06/05 Q1013
  • 052000Z AUTO 25007KT 9999 BKN012 OVC050 06/05 Q1013
  • 051930Z AUTO 26007KT 9999 BKN014 OVC020 06/05 Q1013
  • 051900Z AUTO 25007KT 9999 FEW008 BKN036 BKN044 07/06 Q1013
  • 051830Z AUTO 25008KT 9999 FEW008 SCT027 OVC042 07/05 Q1013
  • 051800Z AUTO 25008KT 9999 BKN020 OVC028 07/05 Q1012
  • 051730Z AUTO 25008KT 9999 -RA BKN023 OVC033 07/05 Q1012
  • 051700Z AUTO 25012KT 9999 BKN024 BKN029 BKN037 07/04 Q1012

TAF N/A



MetMap, La meteo Aeronautica in un colpo d'occhio ! - Copyright ORBIFLY Dicembre 2007 - Disclaimer

ORBIFLY MET'MAP TEAM :

Programmazione e sviluppo : Alexandra Zaïnal
Concezione : Baudouin d'Aumeries
Supporto tecnico e logistico : Manuel Goepfert
Aiuto : Marc-Olivier Méhu
Aiuto per la traduzione : Arnaldo La Scala




FONTI E CREDITI :

   NOAA